Time;durP1;ratioP1;P1;durP2;ratioP2;P2;SDS_P1;SDS_P2;PMS_P1;PMS_P2;Temp;Humidity;BMP_temperature;BMP_pressure;BME280_temperature;BME280_humidity;BME280_pressure;Samples;Min_cycle;Max_cycle;Signal;HPM_P1;HPM_P2
2024/03/30 00:01:31;;;;;;;5.47;1.48;;;9.60;99.90;;;;;;4967763;28;20046;-64
2024/03/30 00:03:57;;;;;;;6.30;1.98;;;9.70;99.90;;;;;;4974331;28;20026;-64
2024/03/30 00:06:22;;;;;;;4.43;1.63;;;9.70;99.90;;;;;;4971911;28;20038;-64
2024/03/30 00:08:48;;;;;;;6.93;3.13;;;9.70;99.90;;;;;;4976873;28;20504;-64
2024/03/30 00:11:14;;;;;;;4.35;1.58;;;9.80;99.90;;;;;;4975244;28;20081;-64
2024/03/30 00:13:39;;;;;;;4.97;1.80;;;9.80;99.90;;;;;;4979999;28;20077;-64
2024/03/30 00:16:12;;;;;;;5.20;1.80;;;9.80;99.90;;;;;;4977852;28;20080;-64
2024/03/30 00:18:39;;;;;;;4.95;1.83;;;9.80;99.90;;;;;;4981312;28;20042;-64
2024/03/30 00:21:04;;;;;;;4.82;1.83;;;9.80;99.90;;;;;;4975775;28;20018;-64
2024/03/30 00:23:31;;;;;;;6.15;1.88;;;9.80;99.90;;;;;;4974631;28;20374;-64
2024/03/30 00:25:57;;;;;;;9.10;1.80;;;9.70;99.90;;;;;;4977778;28;20442;-64
2024/03/30 00:28:23;;;;;;;6.78;1.90;;;9.80;99.90;;;;;;4979893;28;20393;-64
2024/03/30 00:30:49;;;;;;;5.35;1.98;;;9.80;99.90;;;;;;4979806;28;20026;-64
2024/03/30 00:33:15;;;;;;;5.00;1.90;;;9.80;99.90;;;;;;4975834;28;20026;-64
2024/03/30 00:35:42;;;;;;;6.15;1.95;;;9.70;99.90;;;;;;4991462;28;20028;-65
2024/03/30 00:38:07;;;;;;;5.43;1.90;;;9.70;99.90;;;;;;4981365;28;20524;-65
2024/03/30 00:40:34;;;;;;;5.50;2.30;;;9.70;99.90;;;;;;4976501;28;20027;-65
2024/03/30 00:43:03;;;;;;;6.22;2.33;;;9.70;99.90;;;;;;4979253;28;20030;-65
2024/03/30 00:45:30;;;;;;;6.40;2.22;;;9.60;99.90;;;;;;4974613;28;20512;-65
2024/03/30 00:47:56;;;;;;;6.93;2.30;;;9.60;99.90;;;;;;4977712;28;20042;-65
2024/03/30 00:50:22;;;;;;;5.80;2.15;;;9.50;99.90;;;;;;4972644;28;20035;-65
2024/03/30 00:52:47;;;;;;;6.43;2.35;;;9.50;99.90;;;;;;4980129;28;20034;-65
2024/03/30 00:55:13;;;;;;;5.50;2.15;;;9.40;99.90;;;;;;4975961;28;20026;-65
2024/03/30 00:57:41;;;;;;;5.90;2.40;;;9.40;99.90;;;;;;4968757;28;20117;-65
2024/03/30 01:00:11;;;;;;;6.10;2.53;;;9.40;99.90;;;;;;4978620;28;20039;-65
2024/03/30 01:02:40;;;;;;;6.88;2.28;;;9.30;99.90;;;;;;4974974;28;20075;-65
2024/03/30 01:05:07;;;;;;;6.72;2.80;;;9.40;99.90;;;;;;4975026;28;20031;-65
2024/03/30 01:07:32;;;;;;;7.88;2.83;;;9.30;99.90;;;;;;4977127;28;20041;-65
2024/03/30 01:09:58;;;;;;;6.80;2.40;;;9.30;99.90;;;;;;4974564;28;20023;-65
2024/03/30 01:12:25;;;;;;;7.75;2.67;;;9.30;99.90;;;;;;4976978;28;20030;-65
2024/03/30 01:14:51;;;;;;;6.63;2.55;;;9.30;99.90;;;;;;4975480;28;20035;-65
2024/03/30 01:17:17;;;;;;;6.10;2.33;;;9.40;99.90;;;;;;4975780;28;20521;-65
2024/03/30 01:19:43;;;;;;;7.45;2.85;;;9.40;99.90;;;;;;4971002;28;20026;-65
2024/03/30 01:22:12;;;;;;;7.10;2.65;;;9.50;99.90;;;;;;4977214;28;20181;-65
2024/03/30 01:24:38;;;;;;;7.10;2.58;;;9.50;99.90;;;;;;4970017;28;20033;-65
2024/03/30 01:27:09;;;;;;;6.57;2.40;;;9.40;99.90;;;;;;4984636;28;20034;-65
2024/03/30 01:29:36;;;;;;;6.95;2.42;;;9.40;99.90;;;;;;4966506;28;20019;-65
2024/03/30 01:32:02;;;;;;;6.50;2.50;;;9.30;99.90;;;;;;4967760;28;20030;-65
2024/03/30 01:34:28;;;;;;;6.43;2.45;;;9.20;99.90;;;;;;4974700;28;20474;-65
2024/03/30 01:36:53;;;;;;;6.45;2.63;;;9.20;99.90;;;;;;4989031;28;20027;-65
2024/03/30 01:39:20;;;;;;;7.47;2.75;;;9.20;99.90;;;;;;4977292;28;20042;-65
2024/03/30 01:41:45;;;;;;;6.70;2.50;;;9.20;99.90;;;;;;4970781;28;20022;-67
2024/03/30 01:44:12;;;;;;;7.43;2.90;;;9.20;99.90;;;;;;4973412;28;20038;-68
2024/03/30 01:46:39;;;;;;;7.95;3.00;;;9.10;99.90;;;;;;4978545;28;20114;-68
2024/03/30 01:49:06;;;;;;;7.80;2.97;;;9.00;99.90;;;;;;4968729;28;20018;-68
2024/03/30 01:51:32;;;;;;;6.18;2.83;;;8.90;99.90;;;;;;4975534;28;20550;-68
2024/03/30 01:54:00;;;;;;;6.90;2.35;;;8.80;99.90;;;;;;4978824;28;20031;-67
2024/03/30 01:56:26;;;;;;;7.57;2.97;;;8.80;99.90;;;;;;4968743;28;20023;-68
2024/03/30 01:58:53;;;;;;;8.00;2.90;;;8.60;99.90;;;;;;4967761;28;20050;-68
2024/03/30 02:01:19;;;;;;;6.10;2.40;;;8.60;99.90;;;;;;4974978;28;20517;-68
2024/03/30 02:03:45;;;;;;;6.07;2.60;;;8.50;99.90;;;;;;4977807;28;20023;-66
2024/03/30 02:06:13;;;;;;;7.30;2.80;;;8.50;99.90;;;;;;4975129;28;20378;-66
2024/03/30 02:08:40;;;;;;;7.18;2.67;;;8.40;99.90;;;;;;4977698;28;20496;-66
2024/03/30 02:11:08;;;;;;;8.20;3.20;;;8.40;99.90;;;;;;4980882;28;20077;-66
2024/03/30 02:13:34;;;;;;;9.40;2.80;;;8.40;99.90;;;;;;4970439;28;20046;-66
2024/03/30 02:15:59;;;;;;;11.18;3.10;;;8.30;99.90;;;;;;4976885;28;20507;-66
2024/03/30 02:18:25;;;;;;;9.13;4.00;;;8.40;99.90;;;;;;4979540;28;20510;-66
2024/03/30 02:20:53;;;;;;;9.38;4.32;;;8.40;99.90;;;;;;4975421;28;20046;-66
2024/03/30 02:23:19;;;;;;;10.13;3.97;;;8.40;99.90;;;;;;4979225;28;20110;-66
2024/03/30 02:25:44;;;;;;;9.52;4.20;;;8.30;99.90;;;;;;4978531;28;20105;-65
2024/03/30 02:28:11;;;;;;;11.63;4.38;;;8.40;99.90;;;;;;4980463;28;20030;-66
2024/03/30 02:30:38;;;;;;;10.60;4.60;;;8.30;99.90;;;;;;4978589;28;20015;-66
2024/03/30 02:33:06;;;;;;;10.77;4.43;;;8.30;99.90;;;;;;4981091;28;20026;-66
2024/03/30 02:35:32;;;;;;;9.48;4.20;;;8.30;99.90;;;;;;4981704;28;20212;-66
2024/03/30 02:37:58;;;;;;;9.50;4.10;;;8.30;99.90;;;;;;4981203;28;20080;-66
2024/03/30 02:40:26;;;;;;;9.93;4.38;;;8.30;99.90;;;;;;4978012;28;20027;-66
2024/03/30 02:42:51;;;;;;;9.00;3.75;;;8.30;99.90;;;;;;4977573;28;20045;-66
2024/03/30 02:45:18;;;;;;;9.00;4.28;;;8.30;99.90;;;;;;4979054;28;20030;-66
2024/03/30 02:47:43;;;;;;;11.93;4.25;;;8.20;99.90;;;;;;4978857;28;20049;-66
2024/03/30 02:50:09;;;;;;;8.85;4.10;;;8.20;99.90;;;;;;4977611;28;20022;-66
2024/03/30 02:52:34;;;;;;;8.60;4.10;;;8.10;99.90;;;;;;4973432;28;20057;-66
2024/03/30 02:55:00;;;;;;;9.45;4.15;;;8.20;99.90;;;;;;4975408;28;20042;-65
2024/03/30 02:57:26;;;;;;;9.27;4.18;;;8.20;99.90;;;;;;4974781;28;20517;-66
2024/03/30 02:59:52;;;;;;;10.18;4.78;;;8.10;99.90;;;;;;4975462;28;20448;-66
2024/03/30 03:02:17;;;;;;;10.55;4.82;;;8.10;99.90;;;;;;4976700;28;20023;-66
2024/03/30 03:04:43;;;;;;;9.10;4.43;;;8.10;99.90;;;;;;4998867;28;20054;-66
2024/03/30 03:07:09;;;;;;;14.43;5.28;;;8.10;99.90;;;;;;4978948;28;20441;-66
2024/03/30 03:09:35;;;;;;;10.88;4.70;;;8.10;99.90;;;;;;4977843;28;20026;-66
2024/03/30 03:12:04;;;;;;;10.02;4.70;;;8.10;99.90;;;;;;4980527;28;20030;-66
2024/03/30 03:14:32;;;;;;;10.20;4.50;;;8.10;99.90;;;;;;4956548;28;20414;-66
2024/03/30 03:16:58;;;;;;;10.73;5.15;;;8.10;99.90;;;;;;4972821;28;20063;-66
2024/03/30 03:19:24;;;;;;;9.57;4.38;;;8.00;99.90;;;;;;4975765;28;20085;-66
2024/03/30 03:21:49;;;;;;;10.63;4.82;;;8.10;99.90;;;;;;4979170;28;20042;-66
2024/03/30 03:24:15;;;;;;;12.43;4.82;;;8.10;99.90;;;;;;4978444;28;20062;-66
2024/03/30 03:26:41;;;;;;;10.48;4.93;;;8.00;99.90;;;;;;4976704;28;20053;-66
2024/03/30 03:29:06;;;;;;;12.65;5.90;;;8.00;99.90;;;;;;4978264;28;20030;-65
2024/03/30 03:31:32;;;;;;;12.57;6.00;;;8.00;99.90;;;;;;4977539;28;20501;-65
2024/03/30 03:33:58;;;;;;;12.98;6.38;;;8.00;99.90;;;;;;4979877;28;20401;-65
2024/03/30 03:36:23;;;;;;;12.18;5.53;;;8.10;99.90;;;;;;4983495;28;20023;-66
2024/03/30 03:38:51;;;;;;;10.32;5.25;;;8.10;99.90;;;;;;4985730;28;20022;-65
2024/03/30 03:41:19;;;;;;;11.65;5.72;;;8.00;99.90;;;;;;4984274;28;20102;-64
2024/03/30 03:43:45;;;;;;;10.30;4.70;;;7.90;99.90;;;;;;4976550;28;20539;-65
2024/03/30 03:46:11;;;;;;;10.90;4.88;;;7.90;99.90;;;;;;4978460;28;20023;-65
2024/03/30 03:48:39;;;;;;;9.02;4.15;;;7.90;99.90;;;;;;4979236;28;20022;-65
2024/03/30 03:51:05;;;;;;;10.88;5.00;;;7.80;99.90;;;;;;4974556;28;20027;-64
2024/03/30 03:53:30;;;;;;;10.85;5.18;;;7.90;99.90;;;;;;4976893;28;20030;-64
2024/03/30 03:55:56;;;;;;;10.43;4.95;;;7.80;99.90;;;;;;4978358;28;20469;-64
2024/03/30 03:58:21;;;;;;;9.93;4.70;;;7.70;99.90;;;;;;4976973;28;20066;-65
2024/03/30 04:00:47;;;;;;;11.40;4.68;;;7.60;99.90;;;;;;4979041;28;20071;-64
2024/03/30 04:03:13;;;;;;;10.07;4.65;;;7.50;99.90;;;;;;4985170;28;20026;-65
2024/03/30 04:05:38;;;;;;;11.82;5.25;;;7.50;99.90;;;;;;4992764;28;20474;-64
2024/03/30 04:08:04;;;;;;;12.75;5.05;;;7.50;99.90;;;;;;4978331;28;20030;-65
2024/03/30 04:10:29;;;;;;;10.88;4.97;;;7.60;99.90;;;;;;4976621;28;20027;-64
2024/03/30 04:12:55;;;;;;;10.88;5.40;;;7.60;99.90;;;;;;4977764;28;20068;-64
2024/03/30 04:15:21;;;;;;;13.00;5.25;;;7.60;99.90;;;;;;4987691;28;20124;-64
2024/03/30 04:17:47;;;;;;;9.68;4.15;;;7.50;99.90;;;;;;4979061;28;20424;-64
2024/03/30 04:20:15;;;;;;;11.00;4.43;;;7.50;99.90;;;;;;4974885;28;20380;-64
2024/03/30 04:22:41;;;;;;;12.05;4.97;;;7.50;99.90;;;;;;4978247;28;20458;-65
2024/03/30 04:25:10;;;;;;;10.80;4.80;;;7.50;99.90;;;;;;4977478;28;20033;-64
2024/03/30 04:27:35;;;;;;;11.43;5.20;;;7.50;99.90;;;;;;4977634;28;20116;-64
2024/03/30 04:30:01;;;;;;;13.35;5.38;;;7.50;99.90;;;;;;4976731;28;20054;-64
2024/03/30 04:32:27;;;;;;;11.63;4.85;;;7.50;99.90;;;;;;4983366;28;20034;-64
2024/03/30 04:34:55;;;;;;;12.57;5.78;;;7.50;99.90;;;;;;4978988;28;20031;-65
2024/03/30 04:37:21;;;;;;;12.45;5.30;;;7.70;99.90;;;;;;4975010;28;20520;-64
2024/03/30 04:39:52;;;;;;;12.23;5.18;;;7.80;99.90;;;;;;4979164;28;20393;-64
2024/03/30 04:42:17;;;;;;;13.18;5.63;;;7.70;99.90;;;;;;4975235;28;20045;-64
2024/03/30 04:44:43;;;;;;;12.13;5.40;;;7.70;99.90;;;;;;4977969;28;20023;-64
2024/03/30 04:47:09;;;;;;;12.02;4.90;;;7.80;99.90;;;;;;4975068;28;20589;-64
2024/03/30 04:49:34;;;;;;;13.05;5.22;;;7.70;99.90;;;;;;4973743;28;20026;-64
2024/03/30 04:52:00;;;;;;;11.50;5.10;;;7.70;99.90;;;;;;4974054;28;20035;-64
2024/03/30 04:54:25;;;;;;;10.52;4.70;;;7.70;99.90;;;;;;4969217;28;20232;-64
2024/03/30 04:56:51;;;;;;;12.93;4.53;;;7.60;99.90;;;;;;4971262;28;20037;-65
2024/03/30 04:59:19;;;;;;;11.68;4.95;;;7.50;99.90;;;;;;4970764;28;20022;-64
2024/03/30 05:01:44;;;;;;;13.15;4.90;;;7.50;99.90;;;;;;4973264;28;20087;-64
2024/03/30 05:04:10;;;;;;;10.98;4.70;;;7.50;99.90;;;;;;4976237;28;20428;-65
2024/03/30 05:06:35;;;;;;;10.98;4.55;;;7.40;99.90;;;;;;4977361;28;20027;-64
2024/03/30 05:09:01;;;;;;;11.43;4.80;;;7.40;99.90;;;;;;4976609;28;20125;-65
2024/03/30 05:11:27;;;;;;;9.98;4.28;;;7.40;99.90;;;;;;4976264;28;20029;-64
2024/03/30 05:13:53;;;;;;;9.52;4.38;;;7.50;99.90;;;;;;4977932;28;20022;-65
2024/03/30 05:16:19;;;;;;;11.10;4.00;;;7.50;99.90;;;;;;4980280;28;20034;-64
2024/03/30 05:18:44;;;;;;;10.35;4.43;;;7.40;99.90;;;;;;4977958;28;20051;-64
2024/03/30 05:21:10;;;;;;;9.50;3.75;;;7.40;99.90;;;;;;4972142;28;20268;-64
2024/03/30 05:23:36;;;;;;;9.63;3.85;;;7.30;99.90;;;;;;4976800;28;20027;-64
2024/03/30 05:26:06;;;;;;;9.95;4.13;;;7.30;99.90;;;;;;4974518;28;20478;-64
2024/03/30 05:28:36;;;;;;;9.60;4.00;;;7.30;99.90;;;;;;4973830;28;20044;-64
2024/03/30 05:31:05;;;;;;;9.82;4.00;;;7.30;99.90;;;;;;4974357;28;20022;-64
2024/03/30 05:33:30;;;;;;;10.55;4.05;;;7.20;99.90;;;;;;4976738;28;20023;-66
2024/03/30 05:35:56;;;;;;;10.13;4.00;;;7.30;99.90;;;;;;4977496;28;20030;-64
2024/03/30 05:38:22;;;;;;;9.18;3.80;;;7.30;99.90;;;;;;4973384;28;20389;-64
2024/03/30 05:40:51;;;;;;;9.35;3.70;;;7.30;99.90;;;;;;4978548;28;20030;-67
2024/03/30 05:43:17;;;;;;;8.27;3.85;;;7.30;99.90;;;;;;4983301;28;20249;-67
2024/03/30 05:45:47;;;;;;;9.68;3.92;;;7.30;99.90;;;;;;4978241;28;20026;-67
2024/03/30 05:48:13;;;;;;;9.90;4.10;;;7.30;99.90;;;;;;4974719;28;20498;-67
2024/03/30 05:50:38;;;;;;;9.73;4.43;;;7.30;99.90;;;;;;4973551;28;20038;-64
2024/03/30 05:53:05;;;;;;;9.82;4.22;;;7.30;99.90;;;;;;4974139;28;20030;-64
2024/03/30 05:55:30;;;;;;;9.25;4.30;;;7.40;99.90;;;;;;4975254;28;20027;-64
2024/03/30 05:58:02;;;;;;;10.32;4.60;;;7.40;99.90;;;;;;4973969;28;20454;-64
2024/03/30 06:00:30;;;;;;;9.68;4.43;;;7.50;99.90;;;;;;4975075;28;20022;-64
2024/03/30 06:02:56;;;;;;;8.98;4.15;;;7.50;99.90;;;;;;4975365;28;20030;-64
2024/03/30 06:05:22;;;;;;;13.23;4.72;;;7.60;99.90;;;;;;4991052;28;20057;-64
2024/03/30 06:07:48;;;;;;;10.73;4.45;;;7.70;99.90;;;;;;4977846;28;20061;-64
2024/03/30 06:10:14;;;;;;;11.65;4.68;;;7.80;99.90;;;;;;4973271;28;20469;-64
2024/03/30 06:12:39;;;;;;;10.57;4.50;;;7.80;99.90;;;;;;4977964;28;20027;-66
2024/03/30 06:15:06;;;;;;;11.25;5.22;;;7.90;99.90;;;;;;4974939;28;20062;-67
2024/03/30 06:17:40;;;;;;;9.77;4.63;;;7.90;99.90;;;;;;4976503;28;20157;-67
2024/03/30 06:20:09;;;;;;;8.93;4.20;;;8.00;99.90;;;;;;4974627;28;20038;-67
2024/03/30 06:22:35;;;;;;;12.43;4.80;;;8.10;99.90;;;;;;4970054;28;20029;-67
2024/03/30 06:25:02;;;;;;;9.52;4.43;;;8.10;99.90;;;;;;4969310;28;20027;-67
2024/03/30 06:27:28;;;;;;;10.65;4.57;;;8.20;99.90;;;;;;4965883;28;20034;-68
2024/03/30 06:29:54;;;;;;;10.65;4.70;;;8.20;99.90;;;;;;4968138;28;20307;-67
2024/03/30 06:32:20;;;;;;;10.50;4.47;;;8.50;99.90;;;;;;4975722;28;20483;-67
2024/03/30 06:34:48;;;;;;;9.18;4.25;;;8.50;99.90;;;;;;4974257;28;20092;-67
2024/03/30 06:37:14;;;;;;;10.73;4.68;;;8.50;99.90;;;;;;4993531;28;20533;-67
2024/03/30 06:45:10;;;;;;;10.25;4.32;;;8.80;99.90;;;;;;4970820;28;20409;-64
2024/03/30 06:47:36;;;;;;;10.02;4.30;;;8.90;99.90;;;;;;4977559;28;20038;-64
2024/03/30 06:50:02;;;;;;;10.85;5.10;;;9.00;99.90;;;;;;4968638;28;20061;-64
2024/03/30 06:52:27;;;;;;;10.32;4.55;;;9.10;99.90;;;;;;4973580;28;20073;-64
2024/03/30 06:54:53;;;;;;;9.73;4.20;;;9.20;99.90;;;;;;4973609;28;20019;-64
2024/03/30 06:57:18;;;;;;;11.43;4.40;;;9.30;99.90;;;;;;4972734;28;20026;-64
2024/03/30 06:59:45;;;;;;;13.93;4.13;;;9.30;99.90;;;;;;4970947;28;20061;-64
2024/03/30 07:02:11;;;;;;;10.27;3.30;;;9.50;99.90;;;;;;4972560;28;20038;-64
2024/03/30 07:04:38;;;;;;;15.98;3.28;;;9.60;99.90;;;;;;4973877;28;20398;-64
2024/03/30 07:07:04;;;;;;;9.82;2.97;;;10.00;99.90;;;;;;4978799;28;20393;-64
2024/03/30 07:09:30;;;;;;;9.07;2.28;;;10.00;99.90;;;;;;4980121;28;20023;-65
2024/03/30 07:11:59;;;;;;;14.38;2.80;;;10.40;99.90;;;;;;4977170;28;20030;-65
2024/03/30 07:14:25;;;;;;;11.02;2.15;;;10.50;99.90;;;;;;4978965;28;20033;-64
2024/03/30 07:16:55;;;;;;;13.63;2.58;;;10.70;99.90;;;;;;4977264;28;20043;-64
2024/03/30 07:19:21;;;;;;;10.90;2.03;;;11.00;99.90;;;;;;4969006;28;20035;-64
2024/03/30 07:21:46;;;;;;;10.02;2.28;;;11.30;99.90;;;;;;4978371;28;20044;-65
2024/03/30 07:24:12;;;;;;;16.27;2.50;;;11.50;99.90;;;;;;4974860;28;20457;-64
2024/03/30 07:26:38;;;;;;;12.68;1.73;;;11.70;99.90;;;;;;4977774;28;20136;-65
2024/03/30 07:29:07;;;;;;;10.23;1.92;;;11.90;99.90;;;;;;4975215;28;20030;-64
2024/03/30 07:31:32;;;;;;;11.48;3.10;;;12.00;99.90;;;;;;4978904;28;20396;-64
2024/03/30 07:33:58;;;;;;;14.07;2.42;;;12.10;99.90;;;;;;4973922;28;20022;-64
2024/03/30 07:36:23;;;;;;;9.75;2.28;;;12.20;99.90;;;;;;4988522;28;20069;-64
2024/03/30 07:38:49;;;;;;;9.20;2.40;;;12.30;99.90;;;;;;4979649;28;20037;-64
2024/03/30 07:41:15;;;;;;;10.45;2.20;;;12.40;99.90;;;;;;4965342;28;20077;-64
2024/03/30 07:43:40;;;;;;;11.35;1.92;;;12.50;99.90;;;;;;4970944;28;20073;-64
2024/03/30 07:46:06;;;;;;;9.80;1.95;;;12.50;99.90;;;;;;4972443;28;20019;-64
2024/03/30 07:48:31;;;;;;;11.80;3.08;;;12.50;99.90;;;;;;4973450;28;20053;-64
2024/03/30 07:51:02;;;;;;;9.95;2.30;;;12.50;99.90;;;;;;4971866;28;20019;-64
2024/03/30 07:53:27;;;;;;;;;;;12.60;99.90;;;;;;4971672;28;20100;-65
2024/03/30 07:55:53;;;;;;;11.52;1.80;;;12.70;99.90;;;;;;4978854;28;19914;-65
2024/03/30 07:58:18;;;;;;;8.50;1.77;;;12.70;99.90;;;;;;4976576;28;20033;-64
2024/03/30 08:00:44;;;;;;;13.45;2.40;;;12.70;99.90;;;;;;4977302;28;20099;-64
2024/03/30 08:03:09;;;;;;;13.00;1.77;;;12.80;99.90;;;;;;4978246;28;20026;-64
2024/03/30 08:05:37;;;;;;;15.65;2.20;;;12.80;99.90;;;;;;4969020;28;20608;-64
2024/03/30 08:08:03;;;;;;;16.55;2.13;;;12.90;99.90;;;;;;4973681;28;20117;-64
2024/03/30 08:10:28;;;;;;;12.15;2.25;;;13.00;99.90;;;;;;4976071;28;20176;-64
2024/03/30 08:12:54;;;;;;;11.63;1.90;;;13.10;99.90;;;;;;4974126;28;20019;-64
2024/03/30 08:15:19;;;;;;;11.57;2.15;;;13.20;99.90;;;;;;4971887;28;20114;-64
2024/03/30 08:17:45;;;;;;;9.77;2.25;;;13.20;99.90;;;;;;4977041;28;20047;-64
2024/03/30 08:20:14;;;;;;;15.02;2.78;;;13.30;99.90;;;;;;4974807;28;20030;-64
2024/03/30 08:22:41;;;;;;;9.05;1.98;;;13.30;99.90;;;;;;4974421;28;20084;-64
2024/03/30 08:25:07;;;;;;;8.65;1.90;;;13.40;99.90;;;;;;4977504;28;20461;-64
2024/03/30 08:27:33;;;;;;;12.27;2.05;;;13.60;99.90;;;;;;4975360;28;20027;-64
2024/03/30 08:29:59;;;;;;;13.68;2.10;;;13.70;99.90;;;;;;4974756;28;20060;-64
2024/03/30 08:32:24;;;;;;;14.25;2.38;;;14.00;99.90;;;;;;4975197;28;20432;-64
2024/03/30 08:34:50;;;;;;;9.40;2.05;;;14.20;99.90;;;;;;4977527;28;20030;-65
2024/03/30 08:37:15;;;;;;;15.32;2.25;;;14.40;99.90;;;;;;4987883;28;20101;-65
2024/03/30 08:39:41;;;;;;;18.63;2.50;;;14.60;99.90;;;;;;4974517;28;20031;-64
2024/03/30 08:42:07;;;;;;;17.40;2.20;;;14.70;99.90;;;;;;4971742;28;20517;-65
2024/03/30 08:44:33;;;;;;;12.55;1.92;;;14.90;99.90;;;;;;4971272;28;20062;-64
2024/03/30 08:46:58;;;;;;;16.88;2.58;;;15.00;99.90;;;;;;4973346;28;20037;-65
2024/03/30 08:49:24;;;;;;;14.60;3.70;;;15.30;99.90;;;;;;4972509;28;20030;-65
2024/03/30 08:51:52;;;;;;;14.02;2.20;;;15.50;99.90;;;;;;4974888;28;20027;-65
2024/03/30 08:54:17;;;;;;;16.50;2.20;;;15.60;99.90;;;;;;4975829;28;20026;-65
2024/03/30 08:56:43;;;;;;;13.07;1.88;;;15.60;99.90;;;;;;4973775;28;20086;-65
2024/03/30 08:59:08;;;;;;;14.50;1.83;;;15.70;99.90;;;;;;4970631;28;20084;-65
2024/03/30 09:01:34;;;;;;;15.98;2.80;;;15.70;99.90;;;;;;4975031;28;20059;-65
2024/03/30 09:04:00;;;;;;;26.70;2.42;;;15.80;99.90;;;;;;4976158;28;20645;-65
2024/03/30 09:06:25;;;;;;;15.35;2.28;;;15.90;99.90;;;;;;4976823;28;20023;-65
2024/03/30 09:08:51;;;;;;;16.27;2.42;;;16.10;99.90;;;;;;4974733;28;20108;-65
2024/03/30 09:11:16;;;;;;;12.23;2.38;;;16.40;99.90;;;;;;4975490;28;20023;-65
2024/03/30 09:13:43;;;;;;;16.35;2.08;;;16.70;99.90;;;;;;4976901;28;20034;-65
2024/03/30 09:16:08;;;;;;;18.05;2.50;;;16.90;99.90;;;;;;4972123;28;20027;-65
2024/03/30 09:18:34;;;;;;;29.13;2.85;;;16.80;99.90;;;;;;4971673;28;20051;-65
2024/03/30 09:21:02;;;;;;;23.73;2.63;;;16.80;99.90;;;;;;4969857;28;20406;-64
2024/03/30 09:23:30;;;;;;;22.10;2.45;;;16.80;99.90;;;;;;4971749;28;20034;-65
2024/03/30 09:25:55;;;;;;;13.35;2.15;;;17.00;99.90;;;;;;4969972;28;20125;-65
2024/03/30 09:28:21;;;;;;;20.98;3.08;;;17.00;99.90;;;;;;4978167;28;20105;-65
2024/03/30 09:30:47;;;;;;;17.40;2.25;;;17.40;99.90;;;;;;4972606;28;20030;-65
2024/03/30 09:33:13;;;;;;;18.77;3.00;;;17.90;99.90;;;;;;4970632;28;20026;-65
2024/03/30 09:35:40;;;;;;;19.70;3.13;;;18.30;98.90;;;;;;4973048;28;20052;-65
2024/03/30 09:38:05;;;;;;;17.83;2.90;;;18.40;97.70;;;;;;4974596;28;20656;-65
2024/03/30 09:40:33;;;;;;;22.73;2.90;;;18.30;98.00;;;;;;4977346;28;20109;-65
2024/03/30 09:42:59;;;;;;;19.08;3.03;;;18.30;97.50;;;;;;4974755;28;20030;-65
2024/03/30 09:45:27;;;;;;;30.98;3.22;;;18.20;96.70;;;;;;4971440;28;20108;-65
2024/03/30 09:47:57;;;;;;;21.20;3.05;;;18.20;97.40;;;;;;4993418;28;20049;-65
2024/03/30 09:50:23;;;;;;;24.85;3.53;;;18.30;96.40;;;;;;4974882;28;20018;-65
2024/03/30 09:52:50;;;;;;;20.92;3.55;;;18.20;95.60;;;;;;4975203;28;20042;-65
2024/03/30 09:55:17;;;;;;;27.33;3.28;;;18.20;95.50;;;;;;4978848;28;20529;-65
2024/03/30 09:57:49;;;;;;;34.95;4.18;;;18.30;92.60;;;;;;4979421;28;20058;-65
2024/03/30 10:00:16;;;;;;;28.65;3.28;;;18.50;92.80;;;;;;4978197;28;20101;-65
2024/03/30 10:02:43;;;;;;;20.92;3.35;;;18.60;89.90;;;;;;4980828;28;20030;-65
2024/03/30 10:05:12;;;;;;;27.83;3.33;;;18.60;85.60;;;;;;4976916;28;20034;-64
2024/03/30 10:07:53;;;;;;;29.67;3.33;;;18.60;86.50;;;;;;4973380;28;20110;-64
2024/03/30 10:10:21;;;;;;;26.48;4.55;;;18.60;83.30;;;;;;4972101;28;20035;-65
2024/03/30 10:13:05;;;;;;;34.10;4.00;;;18.60;81.30;;;;;;4976848;28;20432;-65
2024/03/30 10:15:39;;;;;;;20.00;3.13;;;18.60;81.50;;;;;;4972809;28;20019;-65
2024/03/30 10:18:05;;;;;;;35.05;4.63;;;18.70;82.90;;;;;;4973539;28;20628;-65
2024/03/30 10:20:31;;;;;;;24.60;4.00;;;18.80;81.30;;;;;;4970772;28;20113;-65
2024/03/30 10:22:57;;;;;;;38.80;4.55;;;18.90;82.70;;;;;;4974252;28;20038;-65
2024/03/30 10:25:24;;;;;;;34.40;4.53;;;18.90;79.90;;;;;;4973947;28;20031;-65
2024/03/30 10:27:50;;;;;;;32.15;4.32;;;19.00;77.30;;;;;;4970562;28;20059;-65
2024/03/30 10:30:19;;;;;;;21.02;3.45;;;19.20;82.40;;;;;;4974835;28;20078;-65
2024/03/30 10:32:45;;;;;;;32.42;3.65;;;19.40;75.10;;;;;;4974889;28;20552;-65
2024/03/30 10:35:14;;;;;;;31.35;4.63;;;19.70;73.90;;;;;;4982800;28;20073;-65
2024/03/30 10:37:40;;;;;;;24.08;4.28;;;19.80;72.00;;;;;;4977116;28;20078;-65
2024/03/30 10:40:10;;;;;;;35.47;4.93;;;19.80;72.00;;;;;;4975666;28;20034;-65
2024/03/30 10:42:39;;;;;;;32.38;3.90;;;19.80;71.80;;;;;;4979307;28;20023;-65
2024/03/30 10:45:06;;;;;;;30.65;4.40;;;19.80;71.90;;;;;;4976138;28;20035;-65
2024/03/30 10:47:34;;;;;;;41.33;4.55;;;20.00;74.70;;;;;;4979298;28;20034;-65
2024/03/30 10:50:00;;;;;;;33.33;5.80;;;20.10;72.00;;;;;;4973817;28;20507;-65
2024/03/30 10:52:30;;;;;;;30.60;4.30;;;20.00;68.40;;;;;;4979381;28;20037;-65
2024/03/30 10:54:57;;;;;;;27.87;4.50;;;19.90;71.00;;;;;;4974213;28;20031;-65
2024/03/30 10:57:23;;;;;;;44.53;4.78;;;20.10;70.80;;;;;;4969566;28;20043;-65
2024/03/30 10:59:49;;;;;;;33.55;5.25;;;20.30;71.30;;;;;;4978290;28;20031;-65
2024/03/30 11:02:24;;;;;;;34.70;4.03;;;20.20;67.90;;;;;;4974769;28;20357;-66
2024/03/30 11:04:53;;;;;;;25.17;3.83;;;20.10;67.40;;;;;;4959686;28;20035;-65
2024/03/30 11:07:21;;;;;;;31.45;4.80;;;19.90;68.50;;;;;;4990509;28;20449;-65
2024/03/30 11:09:47;;;;;;;37.35;4.50;;;20.00;68.60;;;;;;4978740;28;20033;-65
2024/03/30 11:12:14;;;;;;;35.15;5.05;;;19.80;69.60;;;;;;4978883;28;20485;-65
2024/03/30 11:14:41;;;;;;;26.75;4.05;;;19.80;68.20;;;;;;4982056;28;20038;-65
2024/03/30 11:17:25;;;;;;;34.83;3.30;;;19.60;68.80;;;;;;4977804;28;20046;-64
2024/03/30 11:19:58;;;;;;;33.47;4.50;;;19.50;69.00;;;;;;4982844;28;20493;-65
2024/03/30 11:22:53;;;;;;;25.98;4.10;;;19.30;70.00;;;;;;4978963;28;20027;-65
2024/03/30 11:25:24;;;;;;;31.70;4.03;;;19.30;70.60;;;;;;4974352;28;20041;-65
2024/03/30 11:28:11;;;;;;;42.15;4.95;;;19.10;70.90;;;;;;4979261;28;20135;-65
2024/03/30 11:30:49;;;;;;;36.22;4.00;;;19.10;71.50;;;;;;4975825;28;20503;-65
2024/03/30 11:33:26;;;;;;;27.00;4.03;;;19.00;72.40;;;;;;4953838;28;20497;-65
2024/03/30 11:35:58;;;;;;;40.38;5.82;;;19.00;71.70;;;;;;4977720;28;20046;-65
2024/03/30 11:38:28;;;;;;;30.23;4.45;;;18.90;73.30;;;;;;4977902;28;20087;-65
2024/03/30 11:41:01;;;;;;;32.13;4.30;;;18.80;73.60;;;;;;4981328;28;20034;-65
2024/03/30 11:43:40;;;;;;;43.35;4.82;;;18.80;73.30;;;;;;4977257;28;20030;-65
2024/03/30 11:46:09;;;;;;;27.98;4.32;;;18.70;74.10;;;;;;4981345;28;20100;-65
2024/03/30 11:48:35;;;;;;;25.90;3.70;;;18.70;75.90;;;;;;4979561;28;20481;-65
2024/03/30 11:51:01;;;;;;;27.40;3.80;;;18.60;74.60;;;;;;4975326;28;20023;-65
2024/03/30 11:53:34;;;;;;;28.60;3.65;;;18.50;76.30;;;;;;4981731;28;20031;-65
2024/03/30 11:56:00;;;;;;;29.27;3.42;;;18.40;78.30;;;;;;4971647;28;20120;-65
2024/03/30 11:58:25;;;;;;;26.85;4.07;;;18.30;78.00;;;;;;4979885;28;20061;-65
2024/03/30 12:00:54;;;;;;;30.88;4.22;;;18.20;76.70;;;;;;4978391;28;20034;-65
2024/03/30 12:03:19;;;;;;;27.38;4.18;;;18.10;79.10;;;;;;4987702;28;20066;-65
2024/03/30 12:05:47;;;;;;;37.67;4.57;;;18.10;78.40;;;;;;4979186;28;20026;-65
2024/03/30 12:08:15;;;;;;;30.85;3.83;;;18.00;81.70;;;;;;4976197;28;20049;-65
2024/03/30 12:10:54;;;;;;;27.92;4.00;;;18.00;83.00;;;;;;4982277;28;20057;-65
2024/03/30 12:13:24;;;;;;;30.80;4.05;;;17.90;80.60;;;;;;4975833;28;20118;-65
2024/03/30 12:15:50;;;;;;;;;;;17.90;83.50;;;;;;4978374;28;20046;-65
2024/03/30 12:18:16;;;;;;;34.67;3.78;;;17.90;81.90;;;;;;4973098;28;19921;-65
2024/03/30 12:20:48;;;;;;;28.25;4.15;;;17.80;85.10;;;;;;4972970;28;20041;-65
2024/03/30 12:23:15;;;;;;;30.25;3.97;;;17.80;85.20;;;;;;4976483;28;20019;-65
2024/03/30 12:25:42;;;;;;;30.63;4.13;;;17.70;85.10;;;;;;4975014;28;20110;-65
2024/03/30 12:28:09;;;;;;;31.77;4.65;;;17.70;86.20;;;;;;4975037;28;20031;-65
2024/03/30 12:30:46;;;;;;;27.60;3.03;;;17.60;86.10;;;;;;4978531;28;20034;-65
2024/03/30 12:33:12;;;;;;;30.23;4.22;;;17.60;85.40;;;;;;4970187;28;20098;-65
2024/03/30 12:35:39;;;;;;;31.55;5.20;;;17.60;86.30;;;;;;4985242;28;20055;-65
2024/03/30 12:38:05;;;;;;;30.42;4.20;;;17.60;86.30;;;;;;4982124;28;20110;-65
2024/03/30 12:40:34;;;;;;;35.92;4.53;;;17.50;86.20;;;;;;4977380;28;20101;-65
2024/03/30 12:43:01;;;;;;;39.13;5.28;;;17.50;87.70;;;;;;4978319;28;20042;-65
2024/03/30 12:45:27;;;;;;;43.05;5.50;;;17.50;88.00;;;;;;4977076;28;20036;-65
2024/03/30 12:47:54;;;;;;;38.17;4.78;;;17.50;88.30;;;;;;4977461;28;20109;-65
2024/03/30 12:50:24;;;;;;;27.55;4.97;;;17.60;88.70;;;;;;4974259;28;20031;-65